createdAt,value
2019-05-22T00:02:41.701Z,40.13
2019-05-22T00:06:05.982Z,41.07
2019-05-22T00:09:43.895Z,40.00
2019-05-22T00:13:09.851Z,39.23
2019-05-22T00:16:33.959Z,39.33
2019-05-22T00:19:57.760Z,37.47
2019-05-22T00:23:22.010Z,38.13
2019-05-22T00:26:45.998Z,40.67
2019-05-22T00:30:13.211Z,38.63
2019-05-22T00:33:36.606Z,38.50
2019-05-22T00:37:00.555Z,37.60
2019-05-22T00:40:26.973Z,38.20
2019-05-22T00:43:50.921Z,39.00
2019-05-22T00:47:14.271Z,37.77
2019-05-22T00:50:44.199Z,39.27
2019-05-22T00:54:13.997Z,39.13
2019-05-22T00:57:46.746Z,39.07
2019-05-22T01:01:19.673Z,41.43
2019-05-22T01:04:43.018Z,41.60
2019-05-22T01:08:06.430Z,39.00
2019-05-22T01:11:31.497Z,39.63
2019-05-22T01:14:57.188Z,37.40
2019-05-22T01:18:22.733Z,39.00
2019-05-22T01:21:46.583Z,36.57
2019-05-22T01:25:13.881Z,38.33
2019-05-22T01:28:38.177Z,37.57
2019-05-22T01:32:12.932Z,35.87
2019-05-22T01:35:36.397Z,37.53
2019-05-22T01:39:36.320Z,37.00
2019-05-22T01:43:02.938Z,37.17
2019-05-22T01:46:27.923Z,36.90
2019-05-22T01:49:53.477Z,38.10
2019-05-22T01:53:20.957Z,35.87
2019-05-22T01:56:45.406Z,34.13
2019-05-22T02:00:11.107Z,35.73
2019-05-22T02:03:36.038Z,37.47
2019-05-22T02:07:00.734Z,35.13
2019-05-22T02:10:31.373Z,29.93
2019-05-22T02:14:09.423Z,29.30
2019-05-22T02:17:34.709Z,26.97
2019-05-22T02:20:58.512Z,28.93
2019-05-22T02:24:22.281Z,28.57
2019-05-22T02:27:45.924Z,24.87
2019-05-22T02:31:11.374Z,23.43
2019-05-22T02:34:35.128Z,22.57
2019-05-22T02:37:58.414Z,19.03
2019-05-22T02:41:24.308Z,18.87
2019-05-22T02:44:48.117Z,17.17
2019-05-22T02:48:13.289Z,17.40
2019-05-22T02:51:37.488Z,16.90
2019-05-22T02:55:01.663Z,17.43
2019-05-22T02:58:26.862Z,15.73
2019-05-22T03:01:50.672Z,16.40
2019-05-22T03:05:14.622Z,16.27
2019-05-22T03:09:15.650Z,17.57
2019-05-22T03:12:40.258Z,17.17
2019-05-22T03:16:03.598Z,16.23
2019-05-22T03:19:42.097Z,16.10
2019-05-22T03:23:36.083Z,17.03
2019-05-22T03:26:59.484Z,16.20
2019-05-22T03:30:26.748Z,18.57
2019-05-22T03:33:50.102Z,17.10
2019-05-22T03:37:14.105Z,15.13
2019-05-22T03:40:37.799Z,15.60
2019-05-22T03:44:03.068Z,15.90
2019-05-22T03:47:27.543Z,16.60
2019-05-22T03:50:55.975Z,16.07
2019-05-22T03:54:19.703Z,17.60
2019-05-22T03:57:44.970Z,15.07
2019-05-22T04:01:08.472Z,16.63
2019-05-22T04:04:36.046Z,16.80
2019-05-22T04:08:03.010Z,16.30
2019-05-22T04:11:34.394Z,16.00
2019-05-22T04:14:58.251Z,19.23
2019-05-22T04:18:24.023Z,18.70
2019-05-22T04:21:47.527Z,20.70
2019-05-22T04:25:12.123Z,22.17
2019-05-22T04:28:45.459Z,23.50
2019-05-22T04:32:16.649Z,26.57
2019-05-22T04:35:41.043Z,25.30
2019-05-22T04:39:11.798Z,23.23
2019-05-22T04:42:35.097Z,24.90
2019-05-22T04:46:02.755Z,23.03
2019-05-22T04:49:26.111Z,23.33
2019-05-22T04:52:57.982Z,21.63
2019-05-22T04:56:22.287Z,20.67
2019-05-22T04:59:45.417Z,20.83
2019-05-22T05:03:10.550Z,21.17
2019-05-22T05:06:36.852Z,21.23
2019-05-22T05:10:00.174Z,20.07
2019-05-22T05:13:24.135Z,21.07
2019-05-22T05:16:48.603Z,22.33
2019-05-22T05:20:22.023Z,21.43
2019-05-22T05:23:38.165Z,21.37
2019-05-22T05:27:02.604Z,22.17
2019-05-22T05:30:26.820Z,20.13
2019-05-22T05:34:32.936Z,24.33
2019-05-22T05:37:56.227Z,22.30
2019-05-22T05:41:19.440Z,23.27
2019-05-22T05:44:42.525Z,22.00
2019-05-22T05:48:08.476Z,23.10
2019-05-22T05:51:42.370Z,20.87
2019-05-22T05:55:06.875Z,20.83
2019-05-22T05:58:31.680Z,22.47
2019-05-22T06:01:59.834Z,22.50
2019-05-22T06:05:23.521Z,21.77
2019-05-22T06:08:48.035Z,21.10
2019-05-22T06:12:12.401Z,22.10
2019-05-22T06:15:58.439Z,22.27
2019-05-22T06:19:23.485Z,24.03
2019-05-22T06:23:49.277Z,22.03
2019-05-22T06:27:43.688Z,21.10
2019-05-22T06:31:12.951Z,23.87
2019-05-22T06:34:37.119Z,20.75
2019-05-22T06:38:45.591Z,23.20
2019-05-22T06:42:13.454Z,21.48
2019-05-22T06:45:37.077Z,19.17
2019-05-22T06:49:05.785Z,20.75
2019-05-22T06:52:29.002Z,19.77
2019-05-22T06:55:52.243Z,19.27
2019-05-22T06:59:15.579Z,18.00
2019-05-22T07:02:38.753Z,18.37
2019-05-22T07:06:03.286Z,17.27
2019-05-22T07:09:28.381Z,16.42
2019-05-22T07:12:51.509Z,16.25
2019-05-22T07:16:18.817Z,16.35
2019-05-22T07:19:43.233Z,16.02
2019-05-22T07:23:08.015Z,15.18
2019-05-22T07:26:32.000Z,14.65
2019-05-22T07:29:55.882Z,13.30
2019-05-22T07:33:20.383Z,12.90
2019-05-22T07:36:44.855Z,11.88
2019-05-22T07:40:10.036Z,11.68
2019-05-22T07:43:33.687Z,13.43
2019-05-22T07:46:57.429Z,11.93
2019-05-22T07:50:23.732Z,11.95
2019-05-22T07:53:46.941Z,11.70
2019-05-22T07:57:10.703Z,10.43
2019-05-22T08:00:34.874Z,11.80
2019-05-22T08:04:01.548Z,10.05
2019-05-22T08:07:27.623Z,10.53
2019-05-22T08:10:53.151Z,10.68
2019-05-22T08:14:18.121Z,10.15
2019-05-22T08:17:41.814Z,10.43
2019-05-22T08:21:05.524Z,10.53
2019-05-22T08:24:28.878Z,9.10
2019-05-22T08:27:52.329Z,10.35
2019-05-22T08:31:20.100Z,10.18
2019-05-22T08:34:44.240Z,11.50
2019-05-22T08:38:09.426Z,10.63
2019-05-22T08:41:38.449Z,11.48
2019-05-22T08:45:03.290Z,12.95
2019-05-22T08:48:27.680Z,12.10
2019-05-22T08:51:50.948Z,12.50
2019-05-22T08:55:15.146Z,11.85
2019-05-22T08:58:41.684Z,11.78
2019-05-22T09:02:42.263Z,12.13
2019-05-22T09:06:10.002Z,10.85
2019-05-22T09:09:33.081Z,12.60
2019-05-22T09:12:56.436Z,12.90
2019-05-22T09:16:20.193Z,13.70
2019-05-22T09:19:44.475Z,13.05
2019-05-22T09:23:09.912Z,14.05
2019-05-22T09:26:33.134Z,13.68
2019-05-22T09:29:56.346Z,14.03
2019-05-22T09:33:19.804Z,11.90
2019-05-22T09:36:43.840Z,11.28
2019-05-22T09:40:07.439Z,11.05
2019-05-22T09:43:30.891Z,10.88
2019-05-22T09:46:54.669Z,10.45
2019-05-22T09:50:18.547Z,9.15
2019-05-22T09:53:42.696Z,9.93
2019-05-22T09:57:07.103Z,10.85
2019-05-22T10:00:31.234Z,10.70
2019-05-22T10:03:54.624Z,10.90
2019-05-22T10:07:18.104Z,10.20
2019-05-22T10:10:41.533Z,9.65
2019-05-22T10:14:05.703Z,10.03
2019-05-22T10:17:29.743Z,8.23
2019-05-22T10:20:53.613Z,9.20
2019-05-22T10:24:17.506Z,7.92
2019-05-22T10:27:41.826Z,8.30
2019-05-22T10:31:05.027Z,8.60
2019-05-22T10:34:28.322Z,8.50
2019-05-22T10:37:52.005Z,7.53
2019-05-22T10:41:15.166Z,10.38
2019-05-22T10:44:38.457Z,9.63
2019-05-22T10:48:02.673Z,8.93
2019-05-22T10:51:26.429Z,8.88
2019-05-22T10:54:49.900Z,8.38
2019-05-22T10:58:13.025Z,7.53
2019-05-22T11:01:38.921Z,8.60
2019-05-22T11:05:02.503Z,8.65
2019-05-22T11:08:30.392Z,12.55
2019-05-22T11:11:51.665Z,10.98
2019-05-22T11:15:15.249Z,11.57
2019-05-22T11:18:38.772Z,11.80
2019-05-22T11:22:02.713Z,13.05
2019-05-22T11:25:26.647Z,13.53
2019-05-22T11:28:50.307Z,12.50
2019-05-22T11:32:14.684Z,13.03
2019-05-22T11:35:38.529Z,12.25
2019-05-22T11:39:01.791Z,9.95
2019-05-22T11:42:26.440Z,10.78
2019-05-22T11:45:49.716Z,10.80
2019-05-22T11:49:13.046Z,9.58
2019-05-22T11:52:36.353Z,13.05
2019-05-22T11:56:00.264Z,13.75
2019-05-22T11:59:23.965Z,12.98
2019-05-22T12:02:48.917Z,12.18
2019-05-22T12:06:12.457Z,11.85
2019-05-22T12:09:35.812Z,12.18
2019-05-22T12:12:59.835Z,14.23
2019-05-22T12:16:24.117Z,14.55
2019-05-22T12:19:47.226Z,11.33
2019-05-22T12:23:10.368Z,13.38
2019-05-22T12:26:33.753Z,10.85
2019-05-22T12:29:57.112Z,10.10
2019-05-22T12:33:20.512Z,11.95
2019-05-22T12:36:43.962Z,10.32
2019-05-22T12:40:10.239Z,9.68
2019-05-22T12:43:34.501Z,8.10
2019-05-22T12:46:58.001Z,8.60
2019-05-22T12:50:23.224Z,9.08
2019-05-22T12:53:46.947Z,9.00
2019-05-22T12:57:11.429Z,7.50
2019-05-22T13:00:35.402Z,9.05
2019-05-22T13:04:00.398Z,7.08
2019-05-22T13:07:24.769Z,6.78
2019-05-22T13:10:50.713Z,9.18
2019-05-22T13:14:14.576Z,8.58
2019-05-22T13:17:38.845Z,8.88
2019-05-22T13:21:02.921Z,7.53
2019-05-22T13:24:27.416Z,9.50
2019-05-22T13:27:52.757Z,8.73
2019-05-22T13:31:16.411Z,8.78
2019-05-22T13:34:40.857Z,9.58
2019-05-22T13:38:04.736Z,8.63
2019-05-22T13:41:29.212Z,14.90
2019-05-22T13:44:52.785Z,7.00
2019-05-22T13:48:15.939Z,8.88
2019-05-22T13:51:39.792Z,8.95
2019-05-22T13:55:04.179Z,8.20
2019-05-22T13:58:28.328Z,8.33
2019-05-22T14:01:52.344Z,7.20
2019-05-22T14:05:19.241Z,7.17
2019-05-22T14:08:42.334Z,8.28
2019-05-22T14:12:06.772Z,8.38
2019-05-22T14:15:47.775Z,7.40
2019-05-22T14:18:55.634Z,7.05
2019-05-22T14:22:18.761Z,7.65
2019-05-22T14:25:42.743Z,7.95
2019-05-22T14:29:06.239Z,9.35
2019-05-22T14:32:30.612Z,8.35
2019-05-22T14:35:55.194Z,8.23
2019-05-22T14:39:19.736Z,8.28
2019-05-22T14:42:43.315Z,8.05
2019-05-22T14:46:06.597Z,8.70
2019-05-22T14:49:30.382Z,7.67
2019-05-22T14:52:53.733Z,8.40
2019-05-22T14:56:17.823Z,7.65
2019-05-22T14:59:41.121Z,7.22
2019-05-22T15:03:05.995Z,9.98
2019-05-22T15:06:29.963Z,8.83
2019-05-22T15:09:53.313Z,9.73
2019-05-22T15:13:16.399Z,8.28
2019-05-22T15:16:39.808Z,8.55
2019-05-22T15:20:03.379Z,9.18
2019-05-22T15:23:27.229Z,8.20
2019-05-22T15:26:51.457Z,7.25
2019-05-22T15:30:15.359Z,8.58
2019-05-22T15:33:39.763Z,8.00
2019-05-22T15:37:04.982Z,10.43
2019-05-22T15:40:29.711Z,8.18
2019-05-22T15:43:53.503Z,9.20
2019-05-22T15:47:17.087Z,10.03
2019-05-22T15:50:44.285Z,9.75
2019-05-22T15:54:09.865Z,11.85
2019-05-22T15:57:34.621Z,10.60
2019-05-22T16:00:58.210Z,9.53
2019-05-22T16:04:22.631Z,11.55
2019-05-22T16:07:48.699Z,9.60
2019-05-22T16:11:14.914Z,10.35
2019-05-22T16:14:39.223Z,10.85
2019-05-22T16:18:11.708Z,8.90
2019-05-22T16:21:30.494Z,11.03
2019-05-22T16:24:53.973Z,10.55
2019-05-22T16:28:18.059Z,10.00
2019-05-22T16:31:43.407Z,8.30
2019-05-22T16:35:07.881Z,11.68
2019-05-22T16:38:31.314Z,11.20
2019-05-22T16:41:54.522Z,10.25
2019-05-22T16:45:18.197Z,9.70
2019-05-22T16:48:42.513Z,11.28
2019-05-22T16:52:08.349Z,10.45
2019-05-22T16:55:32.381Z,11.25
2019-05-22T16:58:56.746Z,11.38
2019-05-22T17:02:20.748Z,8.93
2019-05-22T17:05:44.131Z,7.75
2019-05-22T17:09:10.799Z,9.18
2019-05-22T17:12:35.565Z,9.83
2019-05-22T17:16:00.033Z,9.70
2019-05-22T17:19:27.532Z,8.10
2019-05-22T17:22:48.252Z,9.00
2019-05-22T17:26:12.119Z,7.10
2019-05-22T17:29:35.642Z,9.63
2019-05-22T17:32:59.132Z,9.13
2019-05-22T17:36:23.487Z,9.73
2019-05-22T17:39:48.716Z,8.78
2019-05-22T17:43:13.731Z,9.48
2019-05-22T17:46:38.909Z,8.88
2019-05-22T17:50:03.094Z,7.15
2019-05-22T17:53:27.816Z,8.23
2019-05-22T17:56:51.610Z,7.47
2019-05-22T18:00:24.668Z,7.65
2019-05-22T18:03:49.089Z,8.13
2019-05-22T18:07:12.326Z,8.25
2019-05-22T18:10:40.367Z,10.25
2019-05-22T18:14:05.253Z,7.70
2019-05-22T18:17:28.651Z,9.25
2019-05-22T18:20:52.662Z,8.45
2019-05-22T18:24:16.043Z,8.88
2019-05-22T18:27:41.318Z,9.18
2019-05-22T18:31:05.014Z,10.08
2019-05-22T18:34:28.337Z,9.88
2019-05-22T18:37:52.023Z,9.83
2019-05-22T18:41:15.378Z,11.70
2019-05-22T18:44:38.875Z,8.98
2019-05-22T18:48:02.704Z,9.58
2019-05-22T18:51:26.116Z,8.10
2019-05-22T18:54:50.926Z,7.25
2019-05-22T18:58:14.255Z,7.87
2019-05-22T19:01:37.818Z,8.08
2019-05-22T19:05:01.213Z,7.78
2019-05-22T19:08:24.436Z,8.30
2019-05-22T19:11:48.196Z,7.62
2019-05-22T19:15:12.572Z,7.67
2019-05-22T19:18:36.341Z,8.33
2019-05-22T19:22:00.684Z,9.08
2019-05-22T19:25:27.235Z,11.88
2019-05-22T19:28:50.783Z,10.28
2019-05-22T19:32:15.218Z,8.95
2019-05-22T19:35:39.097Z,9.45
2019-05-22T19:39:02.851Z,8.78
2019-05-22T19:42:26.220Z,8.38
2019-05-22T19:45:49.372Z,8.93
2019-05-22T19:49:12.910Z,9.75
2019-05-22T19:52:41.803Z,8.98
2019-05-22T19:56:06.451Z,10.23
2019-05-22T19:59:30.886Z,9.60
2019-05-22T20:02:55.271Z,9.15
2019-05-22T20:06:19.372Z,8.88
2019-05-22T20:09:44.094Z,9.68
2019-05-22T20:13:08.338Z,10.18
2019-05-22T20:16:33.498Z,10.43
2019-05-22T20:19:56.944Z,10.55
2019-05-22T20:23:34.505Z,10.05
2019-05-22T20:26:46.362Z,12.35
2019-05-22T20:30:10.502Z,11.53
2019-05-22T20:33:34.089Z,13.15
2019-05-22T20:36:57.385Z,12.53
2019-05-22T20:40:21.479Z,13.28
2019-05-22T20:43:47.629Z,12.70
2019-05-22T20:47:11.239Z,12.78
2019-05-22T20:50:35.566Z,13.15
2019-05-22T20:53:59.445Z,13.10
2019-05-22T21:02:11.358Z,16.50
2019-05-22T21:05:35.589Z,15.75
2019-05-22T21:08:59.817Z,17.42
2019-05-22T21:12:23.769Z,18.85
2019-05-22T21:15:49.128Z,21.52
2019-05-22T21:19:14.237Z,22.93
2019-05-22T21:22:37.741Z,23.87
2019-05-22T21:26:01.107Z,24.10
2019-05-22T21:29:27.164Z,24.95
2019-05-22T21:32:50.316Z,23.92
2019-05-22T21:36:15.913Z,25.95
2019-05-22T21:39:41.503Z,25.68
2019-05-22T21:43:07.237Z,27.60
2019-05-22T21:46:31.061Z,25.57
2019-05-22T21:49:54.717Z,26.00
2019-05-22T21:53:19.840Z,27.80
2019-05-22T21:56:43.931Z,28.02
2019-05-22T22:00:14.091Z,25.68
2019-05-22T22:03:41.603Z,26.60
2019-05-22T22:07:05.242Z,27.65
2019-05-22T22:10:30.052Z,27.70
2019-05-22T22:13:54.470Z,27.93
2019-05-22T22:17:19.182Z,28.40
2019-05-22T22:20:42.875Z,28.25
2019-05-22T22:24:06.819Z,30.60
2019-05-22T22:27:30.742Z,30.90
2019-05-22T22:30:56.056Z,29.97
2019-05-22T22:34:39.997Z,31.97
2019-05-22T22:38:03.655Z,28.97
2019-05-22T22:41:27.565Z,31.97
2019-05-22T22:44:53.677Z,30.68
2019-05-22T22:48:21.377Z,30.47
2019-05-22T22:51:46.251Z,28.77
2019-05-22T22:55:14.534Z,29.13
2019-05-22T22:58:38.504Z,28.67
2019-05-22T23:02:02.707Z,26.87
2019-05-22T23:05:26.708Z,26.17
2019-05-22T23:08:51.742Z,26.63
2019-05-22T23:12:15.405Z,26.90
2019-05-22T23:15:39.489Z,29.77
2019-05-22T23:19:38.167Z,27.33
2019-05-22T23:22:59.945Z,29.57
2019-05-22T23:26:24.534Z,27.80
2019-05-22T23:29:48.374Z,30.10
2019-05-22T23:33:11.594Z,30.80
2019-05-22T23:36:36.071Z,30.63
2019-05-22T23:39:59.414Z,31.40
2019-05-22T23:43:22.746Z,31.13
2019-05-22T23:46:45.859Z,30.43
2019-05-22T23:50:09.565Z,33.03
2019-05-22T23:53:34.699Z,31.57
2019-05-22T23:56:58.204Z,29.93
